sensor_id;sensor_type;location;lat;lon;timestamp;pressure;altitude;pressure_sealevel;temperature;humidity
29163;BME280;20331;53.144;8.208;2024-03-06T10:21:39;102470.16;;;7.11;99.26
29163;BME280;20331;53.144;8.208;2024-03-06T10:27:01;102477.06;;;7.16;97.91
29163;BME280;20331;53.144;8.208;2024-03-06T10:32:23;102478.03;;;7.25;97.17
29163;BME280;20331;53.144;8.208;2024-03-06T10:37:46;102468.75;;;7.41;97.13
29163;BME280;20331;53.144;8.208;2024-03-06T10:43:09;102483.53;;;7.60;96.59
29163;BME280;20331;53.144;8.208;2024-03-06T10:48:33;102483.69;;;7.84;93.56
29163;BME280;20331;53.144;8.208;2024-03-06T10:53:57;102489.88;;;8.04;93.74
29163;BME280;20331;53.144;8.208;2024-03-06T10:59:25;102483.13;;;8.21;93.10
29163;BME280;20331;53.144;8.208;2024-03-06T11:04:51;102484.94;;;8.31;93.29
29163;BME280;20331;53.144;8.208;2024-03-06T11:10:13;102480.66;;;8.36;91.39
29163;BME280;20331;53.144;8.208;2024-03-06T11:15:52;102492.00;;;8.65;91.34
29163;BME280;20331;53.144;8.208;2024-03-06T11:32:12;102483.53;;;9.05;90.58
29163;BME280;20331;53.144;8.208;2024-03-06T11:37:34;102490.47;;;9.20;90.78
29163;BME280;20331;53.144;8.208;2024-03-06T11:43:24;102492.16;;;9.10;89.37
29163;BME280;20331;53.144;8.208;2024-03-06T11:48:53;102489.59;;;9.21;87.72
29163;BME280;20331;53.144;8.208;2024-03-06T11:54:20;102490.50;;;9.25;88.94
29163;BME280;20331;53.144;8.208;2024-03-06T11:59:45;102498.22;;;9.31;90.85
29163;BME280;20331;53.144;8.208;2024-03-06T12:05:08;102493.94;;;9.39;89.24
29163;BME280;20331;53.144;8.208;2024-03-06T12:10:36;102495.69;;;9.52;88.18
29163;BME280;20331;53.144;8.208;2024-03-06T12:16:04;102496.50;;;9.22;87.75
29163;BME280;20331;53.144;8.208;2024-03-06T12:21:32;102493.06;;;9.25;87.79
29163;BME280;20331;53.144;8.208;2024-03-06T12:27:01;102491.38;;;9.46;87.90
29163;BME280;20331;53.144;8.208;2024-03-06T12:32:26;102493.97;;;9.63;89.25
29163;BME280;20331;53.144;8.208;2024-03-06T12:37:53;102496.56;;;9.66;88.25
29163;BME280;20331;53.144;8.208;2024-03-06T12:43:15;102498.28;;;9.62;86.97
29163;BME280;20331;53.144;8.208;2024-03-06T12:48:37;102495.72;;;9.79;89.29
29163;BME280;20331;53.144;8.208;2024-03-06T12:54:00;102494.84;;;9.71;88.47
29163;BME280;20331;53.144;8.208;2024-03-06T12:59:22;102497.44;;;9.72;87.52
29163;BME280;20331;53.144;8.208;2024-03-06T13:04:44;102501.72;;;9.69;89.60
29163;BME280;20331;53.144;8.208;2024-03-06T13:10:06;102506.06;;;9.67;88.68
29163;BME280;20331;53.144;8.208;2024-03-06T13:15:32;102493.13;;;9.82;84.89
29163;BME280;20331;53.144;8.208;2024-03-06T13:20:55;102506.03;;;9.97;87.33
29163;BME280;20331;53.144;8.208;2024-03-06T13:26:19;102514.66;;;9.84;85.81
29163;BME280;20331;53.144;8.208;2024-03-06T13:31:42;102512.94;;;9.89;88.99
29163;BME280;20331;53.144;8.208;2024-03-06T13:37:04;102521.56;;;9.97;88.60
29163;BME280;20331;53.144;8.208;2024-03-06T13:42:28;102517.25;;;9.91;88.80
29163;BME280;20331;53.144;8.208;2024-03-06T13:47:50;102519.81;;;9.93;87.98
29163;BME280;20331;53.144;8.208;2024-03-06T13:53:12;102521.56;;;9.89;88.41
29163;BME280;20331;53.144;8.208;2024-03-06T13:58:34;102516.38;;;9.95;89.08
29163;BME280;20331;53.144;8.208;2024-03-06T14:03:56;102521.56;;;10.03;87.59
29163;BME280;20331;53.144;8.208;2024-03-06T14:09:18;102515.53;;;9.99;89.22
29163;BME280;20331;53.144;8.208;2024-03-06T14:14:40;102521.56;;;10.06;87.67
29163;BME280;20331;53.144;8.208;2024-03-06T14:20:01;102521.56;;;9.97;88.47
29163;BME280;20331;53.144;8.208;2024-03-06T14:25:24;102519.84;;;10.19;87.27
29163;BME280;20331;53.144;8.208;2024-03-06T14:30:46;102509.50;;;10.26;86.80
29163;BME280;20331;53.144;8.208;2024-03-06T14:36:09;102523.31;;;10.25;87.90
29163;BME280;20331;53.144;8.208;2024-03-06T14:41:31;102516.38;;;10.33;88.08
29163;BME280;20331;53.144;8.208;2024-03-06T14:46:54;102520.69;;;10.36;88.07
29163;BME280;20331;53.144;8.208;2024-03-06T14:52:16;102512.06;;;10.34;86.97
29163;BME280;20331;53.144;8.208;2024-03-06T14:57:37;102527.53;;;10.52;85.51
29163;BME280;20331;53.144;8.208;2024-03-06T15:02:59;102521.50;;;10.54;85.07
29163;BME280;20331;53.144;8.208;2024-03-06T15:08:23;102532.72;;;10.56;87.30
29163;BME280;20331;53.144;8.208;2024-03-06T15:13:45;102537.91;;;10.55;88.45
29163;BME280;20331;53.144;8.208;2024-03-06T15:19:08;102536.16;;;10.60;86.09
29163;BME280;20331;53.144;8.208;2024-03-06T15:24:30;102534.44;;;10.63;86.50
29163;BME280;20331;53.144;8.208;2024-03-06T15:29:52;102551.66;;;10.75;86.70
29163;BME280;20331;53.144;8.208;2024-03-06T15:35:14;102549.03;;;10.79;84.48
29163;BME280;20331;53.144;8.208;2024-03-06T15:40:36;102550.84;;;10.56;85.29
29163;BME280;20331;53.144;8.208;2024-03-06T15:45:57;102559.50;;;10.49;86.93
29163;BME280;20331;53.144;8.208;2024-03-06T15:51:19;102555.19;;;10.38;84.57
29163;BME280;20331;53.144;8.208;2024-03-06T15:56:41;102556.06;;;10.38;87.18
29163;BME280;20331;53.144;8.208;2024-03-06T16:02:04;102556.06;;;10.34;87.66
29163;BME280;20331;53.144;8.208;2024-03-06T16:07:26;102563.81;;;10.37;87.59
29163;BME280;20331;53.144;8.208;2024-03-06T16:12:49;102558.66;;;10.32;87.51
29163;BME280;20331;53.144;8.208;2024-03-06T16:18:11;102563.81;;;10.26;87.74
29163;BME280;20331;53.144;8.208;2024-03-06T16:23:34;102573.31;;;10.18;88.32
29163;BME280;20331;53.144;8.208;2024-03-06T16:28:56;102587.09;;;10.11;88.89
29163;BME280;20331;53.144;8.208;2024-03-06T16:34:20;102583.66;;;10.15;86.37
29163;BME280;20331;53.144;8.208;2024-03-06T16:39:44;102587.09;;;10.05;89.02
29163;BME280;20331;53.144;8.208;2024-03-06T16:45:11;102586.25;;;10.10;89.88
29163;BME280;20331;53.144;8.208;2024-03-06T16:50:33;102595.69;;;10.04;88.43
29163;BME280;20331;53.144;8.208;2024-03-06T16:55:55;102604.31;;;9.94;88.97
29163;BME280;20331;53.144;8.208;2024-03-06T17:01:16;102608.66;;;10.11;88.48
29163;BME280;20331;53.144;8.208;2024-03-06T17:06:38;102612.13;;;10.20;87.84
29163;BME280;20331;53.144;8.208;2024-03-06T17:12:01;102611.19;;;10.04;87.58
29163;BME280;20331;53.144;8.208;2024-03-06T17:17:23;102618.97;;;10.02;88.61
29163;BME280;20331;53.144;8.208;2024-03-06T17:22:45;102631.91;;;10.04;87.29
29163;BME280;20331;53.144;8.208;2024-03-06T17:28:07;102625.88;;;9.97;87.29
29163;BME280;20331;53.144;8.208;2024-03-06T17:33:30;102629.31;;;9.99;88.06
29163;BME280;20331;53.144;8.208;2024-03-06T17:38:52;102637.06;;;10.01;87.54
29163;BME280;20331;53.144;8.208;2024-03-06T17:44:14;102645.66;;;9.91;87.08
29163;BME280;20331;53.144;8.208;2024-03-06T17:49:39;102643.09;;;9.86;87.86
29163;BME280;20331;53.144;8.208;2024-03-06T17:55:01;102652.63;;;10.10;87.00
29163;BME280;20331;53.144;8.208;2024-03-06T18:00:23;102658.63;;;10.04;86.24
29163;BME280;20331;53.144;8.208;2024-03-06T18:05:45;102667.22;;;10.02;87.08
29163;BME280;20331;53.144;8.208;2024-03-06T18:11:07;102667.22;;;9.87;89.27
29163;BME280;20331;53.144;8.208;2024-03-06T18:16:29;102669.81;;;9.88;87.20
29163;BME280;20331;53.144;8.208;2024-03-06T18:21:51;102672.38;;;9.94;86.88
29163;BME280;20331;53.144;8.208;2024-03-06T18:27:13;102688.75;;;9.83;87.64
29163;BME280;20331;53.144;8.208;2024-03-06T18:32:35;102675.78;;;9.71;87.98
29163;BME280;20331;53.144;8.208;2024-03-06T18:37:57;102677.47;;;9.67;87.19
29163;BME280;20331;53.144;8.208;2024-03-06T18:43:22;102680.09;;;9.73;88.64
29163;BME280;20331;53.144;8.208;2024-03-06T18:48:44;102684.41;;;9.67;87.60
29163;BME280;20331;53.144;8.208;2024-03-06T18:54:06;102696.44;;;9.68;88.53
29163;BME280;20331;53.144;8.208;2024-03-06T18:59:28;102699.00;;;9.62;86.85
29163;BME280;20331;53.144;8.208;2024-03-06T19:04:50;102699.00;;;9.62;87.27
29163;BME280;20331;53.144;8.208;2024-03-06T19:10:11;102705.91;;;9.66;85.96
29163;BME280;20331;53.144;8.208;2024-03-06T19:15:33;102715.31;;;9.49;87.02
29163;BME280;20331;53.144;8.208;2024-03-06T19:20:55;102718.66;;;9.33;88.64
29163;BME280;20331;53.144;8.208;2024-03-06T19:26:16;102715.22;;;9.26;89.55
29163;BME280;20331;53.144;8.208;2024-03-06T19:31:39;102715.94;;;9.08;88.86
29163;BME280;20331;53.144;8.208;2024-03-06T19:37:00;102722.84;;;9.09;89.16
29163;BME280;20331;53.144;8.208;2024-03-06T19:42:22;102728.84;;;9.04;88.52
29163;BME280;20331;53.144;8.208;2024-03-06T19:47:44;102736.53;;;8.99;89.33
29163;BME280;20331;53.144;8.208;2024-03-06T19:53:06;102731.31;;;8.90;88.42
29163;BME280;20331;53.144;8.208;2024-03-06T19:58:28;102732.97;;;8.82;88.95
29163;BME280;20331;53.144;8.208;2024-03-06T20:03:49;102741.53;;;8.78;88.92
29163;BME280;20331;53.144;8.208;2024-03-06T20:09:11;102748.31;;;8.64;89.51
29163;BME280;20331;53.144;8.208;2024-03-06T20:14:35;102750.69;;;8.42;88.46
29163;BME280;20331;53.144;8.208;2024-03-06T20:19:57;102754.94;;;8.37;89.82
29163;BME280;20331;53.144;8.208;2024-03-06T20:25:19;102760.78;;;8.24;89.79
29163;BME280;20331;53.144;8.208;2024-03-06T20:30:41;102751.19;;;8.15;89.46
29163;BME280;20331;53.144;8.208;2024-03-06T20:36:04;102773.41;;;8.04;90.50
29163;BME280;20331;53.144;8.208;2024-03-06T20:41:26;102768.13;;;7.92;90.17
29163;BME280;20331;53.144;8.208;2024-03-06T20:46:49;102771.47;;;7.82;89.90
29163;BME280;20331;53.144;8.208;2024-03-06T20:52:10;102786.63;;;7.62;89.67
29163;BME280;20331;53.144;8.208;2024-03-06T20:57:53;102770.09;;;7.45;89.56
29163;BME280;20331;53.144;8.208;2024-03-06T21:03:15;102782.09;;;7.45;90.15
29163;BME280;20331;53.144;8.208;2024-03-06T21:08:39;102790.47;;;7.30;89.61
29163;BME280;20331;53.144;8.208;2024-03-06T21:14:01;102791.09;;;7.14;90.54
29163;BME280;20331;53.144;8.208;2024-03-06T21:19:23;102795.22;;;7.04;90.30
29163;BME280;20331;53.144;8.208;2024-03-06T21:25:02;102791.72;;;7.01;91.12
29163;BME280;20331;53.144;8.208;2024-03-06T21:30:24;102796.94;;;7.05;91.19
29163;BME280;20331;53.144;8.208;2024-03-06T21:35:46;102800.09;;;6.88;90.65
29163;BME280;20331;53.144;8.208;2024-03-06T21:41:08;102807.88;;;6.92;90.86
29163;BME280;20331;53.144;8.208;2024-03-06T21:46:30;102806.91;;;6.84;91.37
29163;BME280;20331;53.144;8.208;2024-03-06T21:51:51;102812.78;;;6.77;91.35
29163;BME280;20331;53.144;8.208;2024-03-06T21:57:13;102813.56;;;6.73;91.38
29163;BME280;20331;53.144;8.208;2024-03-06T22:02:36;102826.41;;;6.73;91.84
29163;BME280;20331;53.144;8.208;2024-03-06T22:07:58;102824.78;;;6.78;90.74
29163;BME280;20331;53.144;8.208;2024-03-06T22:13:20;102833.91;;;6.61;91.34
29163;BME280;20331;53.144;8.208;2024-03-06T22:18:42;102837.97;;;6.50;90.88
29163;BME280;20331;53.144;8.208;2024-03-06T22:24:05;102836.94;;;6.41;91.56
29163;BME280;20331;53.144;8.208;2024-03-06T22:29:26;102841.22;;;6.40;92.00
29163;BME280;20331;53.144;8.208;2024-03-06T22:34:49;102832.28;;;6.23;91.62
29163;BME280;20331;53.144;8.208;2024-03-06T22:40:11;102832.84;;;6.08;92.25
29163;BME280;20331;53.144;8.208;2024-03-06T22:45:33;102843.13;;;6.08;92.37
29163;BME280;20331;53.144;8.208;2024-03-06T22:50:54;102840.50;;;6.04;93.03
29163;BME280;20331;53.144;8.208;2024-03-06T22:56:16;102836.16;;;6.03;92.75
29163;BME280;20331;53.144;8.208;2024-03-06T23:01:39;102843.06;;;6.04;92.49
29163;BME280;20331;53.144;8.208;2024-03-06T23:07:01;102849.16;;;6.09;92.77
29163;BME280;20331;53.144;8.208;2024-03-06T23:12:23;102845.69;;;6.07;93.47
29163;BME280;20331;53.144;8.208;2024-03-06T23:17:46;102842.47;;;6.17;91.82
29163;BME280;20331;53.144;8.208;2024-03-06T23:23:08;102842.56;;;6.23;90.89
29163;BME280;20331;53.144;8.208;2024-03-06T23:28:30;102833.91;;;6.18;91.75
29163;BME280;20331;53.144;8.208;2024-03-06T23:33:51;102829.47;;;6.09;91.27
29163;BME280;20331;53.144;8.208;2024-03-06T23:39:13;102830.31;;;6.10;91.14
29163;BME280;20331;53.144;8.208;2024-03-06T23:44:35;102836.13;;;6.00;91.68
29163;BME280;20331;53.144;8.208;2024-03-06T23:49:57;102837.94;;;6.05;92.03
29163;BME280;20331;53.144;8.208;2024-03-06T23:55:19;102844.06;;;6.12;91.58
